sensor_id;sensor_type;location;lat;lon;timestamp;P1;durP1;ratioP1;P2;durP2;ratioP2
37647;SDS011;23490;53.656;10.076;2023-05-07T00:00:44;12.90;;;7.40;;
37647;SDS011;23490;53.656;10.076;2023-05-07T00:03:09;11.32;;;7.53;;
37647;SDS011;23490;53.656;10.076;2023-05-07T00:05:36;13.23;;;7.38;;
37647;SDS011;23490;53.656;10.076;2023-05-07T00:08:02;10.70;;;7.32;;
37647;SDS011;23490;53.656;10.076;2023-05-07T00:10:28;12.35;;;7.45;;
37647;SDS011;23490;53.656;10.076;2023-05-07T00:12:53;12.05;;;7.38;;
37647;SDS011;23490;53.656;10.076;2023-05-07T00:15:19;13.38;;;7.85;;
37647;SDS011;23490;53.656;10.076;2023-05-07T00:17:44;13.18;;;8.30;;
37647;SDS011;23490;53.656;10.076;2023-05-07T00:20:10;14.05;;;7.90;;
37647;SDS011;23490;53.656;10.076;2023-05-07T00:22:35;12.35;;;7.78;;
37647;SDS011;23490;53.656;10.076;2023-05-07T00:25:01;13.32;;;8.45;;
37647;SDS011;23490;53.656;10.076;2023-05-07T00:27:26;12.23;;;7.72;;
37647;SDS011;23490;53.656;10.076;2023-05-07T00:29:51;13.98;;;8.68;;
37647;SDS011;23490;53.656;10.076;2023-05-07T00:32:17;12.45;;;8.32;;
37647;SDS011;23490;53.656;10.076;2023-05-07T00:34:43;13.55;;;8.63;;
37647;SDS011;23490;53.656;10.076;2023-05-07T00:37:08;12.55;;;7.85;;
37647;SDS011;23490;53.656;10.076;2023-05-07T00:39:34;12.85;;;8.52;;
37647;SDS011;23490;53.656;10.076;2023-05-07T00:42:00;14.95;;;7.97;;
37647;SDS011;23490;53.656;10.076;2023-05-07T00:44:26;12.05;;;7.57;;
37647;SDS011;23490;53.656;10.076;2023-05-07T00:46:52;12.30;;;7.43;;
37647;SDS011;23490;53.656;10.076;2023-05-07T00:49:18;11.32;;;7.68;;
37647;SDS011;23490;53.656;10.076;2023-05-07T00:51:44;11.23;;;7.55;;
37647;SDS011;23490;53.656;10.076;2023-05-07T00:54:10;13.85;;;8.23;;
37647;SDS011;23490;53.656;10.076;2023-05-07T00:56:36;16.40;;;8.02;;
37647;SDS011;23490;53.656;10.076;2023-05-07T00:59:01;13.95;;;8.05;;
37647;SDS011;23490;53.656;10.076;2023-05-07T01:01:27;12.00;;;7.57;;
37647;SDS011;23490;53.656;10.076;2023-05-07T01:03:54;14.07;;;7.95;;
37647;SDS011;23490;53.656;10.076;2023-05-07T01:06:20;14.77;;;8.73;;
37647;SDS011;23490;53.656;10.076;2023-05-07T01:08:48;12.98;;;7.75;;
37647;SDS011;23490;53.656;10.076;2023-05-07T01:11:15;14.15;;;7.70;;
37647;SDS011;23490;53.656;10.076;2023-05-07T01:13:43;12.82;;;8.02;;
37647;SDS011;23490;53.656;10.076;2023-05-07T01:16:09;10.35;;;5.22;;
37647;SDS011;23490;53.656;10.076;2023-05-07T01:18:34;13.75;;;8.30;;
37647;SDS011;23490;53.656;10.076;2023-05-07T01:21:00;13.85;;;7.70;;
37647;SDS011;23490;53.656;10.076;2023-05-07T01:23:29;10.75;;;7.28;;
37647;SDS011;23490;53.656;10.076;2023-05-07T01:25:55;11.55;;;7.32;;
37647;SDS011;23490;53.656;10.076;2023-05-07T01:28:21;11.35;;;6.38;;
37647;SDS011;23490;53.656;10.076;2023-05-07T01:30:48;12.50;;;6.88;;
37647;SDS011;23490;53.656;10.076;2023-05-07T01:33:20;12.38;;;6.35;;
37647;SDS011;23490;53.656;10.076;2023-05-07T01:35:48;10.43;;;6.68;;
37647;SDS011;23490;53.656;10.076;2023-05-07T01:38:18;11.80;;;6.85;;
37647;SDS011;23490;53.656;10.076;2023-05-07T01:40:43;10.52;;;6.50;;
37647;SDS011;23490;53.656;10.076;2023-05-07T01:43:09;11.90;;;6.97;;
37647;SDS011;23490;53.656;10.076;2023-05-07T01:45:35;10.18;;;5.78;;
37647;SDS011;23490;53.656;10.076;2023-05-07T01:48:02;11.02;;;6.05;;
37647;SDS011;23490;53.656;10.076;2023-05-07T01:50:28;13.07;;;7.10;;
37647;SDS011;23490;53.656;10.076;2023-05-07T01:52:55;12.02;;;6.03;;
37647;SDS011;23490;53.656;10.076;2023-05-07T01:55:21;11.02;;;6.07;;
37647;SDS011;23490;53.656;10.076;2023-05-07T01:57:47;9.38;;;5.55;;
37647;SDS011;23490;53.656;10.076;2023-05-07T02:00:12;8.63;;;5.40;;
37647;SDS011;23490;53.656;10.076;2023-05-07T02:02:39;9.27;;;6.13;;
37647;SDS011;23490;53.656;10.076;2023-05-07T02:05:04;11.63;;;5.63;;
37647;SDS011;23490;53.656;10.076;2023-05-07T02:07:31;9.90;;;6.25;;
37647;SDS011;23490;53.656;10.076;2023-05-07T02:09:56;10.95;;;6.13;;
37647;SDS011;23490;53.656;10.076;2023-05-07T02:12:22;9.60;;;5.35;;
37647;SDS011;23490;53.656;10.076;2023-05-07T02:14:48;10.60;;;6.80;;
37647;SDS011;23490;53.656;10.076;2023-05-07T02:17:13;9.75;;;6.32;;
37647;SDS011;23490;53.656;10.076;2023-05-07T02:19:38;10.60;;;6.32;;
37647;SDS011;23490;53.656;10.076;2023-05-07T02:22:04;11.57;;;6.47;;
37647;SDS011;23490;53.656;10.076;2023-05-07T02:24:29;10.95;;;6.55;;
37647;SDS011;23490;53.656;10.076;2023-05-07T02:26:55;10.35;;;5.78;;
37647;SDS011;23490;53.656;10.076;2023-05-07T02:29:20;10.27;;;5.80;;
37647;SDS011;23490;53.656;10.076;2023-05-07T02:31:46;11.45;;;6.15;;
37647;SDS011;23490;53.656;10.076;2023-05-07T02:34:15;10.70;;;6.23;;
37647;SDS011;23490;53.656;10.076;2023-05-07T02:36:41;11.20;;;6.40;;
37647;SDS011;23490;53.656;10.076;2023-05-07T02:39:06;10.88;;;6.53;;
37647;SDS011;23490;53.656;10.076;2023-05-07T02:41:31;11.90;;;6.47;;
37647;SDS011;23490;53.656;10.076;2023-05-07T02:43:57;13.10;;;6.50;;
37647;SDS011;23490;53.656;10.076;2023-05-07T02:46:22;10.63;;;6.18;;
37647;SDS011;23490;53.656;10.076;2023-05-07T02:48:47;10.95;;;6.95;;
37647;SDS011;23490;53.656;10.076;2023-05-07T02:51:13;11.57;;;6.13;;
37647;SDS011;23490;53.656;10.076;2023-05-07T02:53:38;10.88;;;5.93;;
37647;SDS011;23490;53.656;10.076;2023-05-07T02:56:04;11.35;;;6.85;;
37647;SDS011;23490;53.656;10.076;2023-05-07T02:58:31;10.65;;;6.90;;
37647;SDS011;23490;53.656;10.076;2023-05-07T03:00:57;10.77;;;6.30;;
37647;SDS011;23490;53.656;10.076;2023-05-07T03:03:23;12.32;;;6.85;;
37647;SDS011;23490;53.656;10.076;2023-05-07T03:05:49;11.20;;;6.72;;
37647;SDS011;23490;53.656;10.076;2023-05-07T03:08:14;11.77;;;7.00;;
37647;SDS011;23490;53.656;10.076;2023-05-07T03:10:39;12.15;;;6.55;;
37647;SDS011;23490;53.656;10.076;2023-05-07T03:13:05;12.25;;;7.30;;
37647;SDS011;23490;53.656;10.076;2023-05-07T03:15:30;11.38;;;6.13;;
37647;SDS011;23490;53.656;10.076;2023-05-07T03:17:56;13.68;;;7.55;;
37647;SDS011;23490;53.656;10.076;2023-05-07T03:20:22;11.13;;;6.55;;
37647;SDS011;23490;53.656;10.076;2023-05-07T03:22:49;10.18;;;6.88;;
37647;SDS011;23490;53.656;10.076;2023-05-07T03:25:15;10.70;;;5.80;;
37647;SDS011;23490;53.656;10.076;2023-05-07T03:27:41;10.55;;;6.47;;
37647;SDS011;23490;53.656;10.076;2023-05-07T03:30:09;9.90;;;6.65;;
37647;SDS011;23490;53.656;10.076;2023-05-07T03:32:36;11.80;;;6.68;;
37647;SDS011;23490;53.656;10.076;2023-05-07T03:35:01;9.40;;;5.88;;
37647;SDS011;23490;53.656;10.076;2023-05-07T03:37:27;12.65;;;6.43;;
37647;SDS011;23490;53.656;10.076;2023-05-07T03:39:52;10.27;;;5.85;;
37647;SDS011;23490;53.656;10.076;2023-05-07T03:42:19;11.38;;;7.18;;
37647;SDS011;23490;53.656;10.076;2023-05-07T03:44:45;10.07;;;6.40;;
37647;SDS011;23490;53.656;10.076;2023-05-07T03:47:10;11.15;;;7.07;;
37647;SDS011;23490;53.656;10.076;2023-05-07T03:49:36;9.50;;;6.30;;
37647;SDS011;23490;53.656;10.076;2023-05-07T03:52:01;10.55;;;6.28;;
37647;SDS011;23490;53.656;10.076;2023-05-07T03:54:27;9.23;;;5.55;;
37647;SDS011;23490;53.656;10.076;2023-05-07T03:56:52;11.98;;;6.57;;
37647;SDS011;23490;53.656;10.076;2023-05-07T03:59:17;10.57;;;6.18;;
37647;SDS011;23490;53.656;10.076;2023-05-07T04:01:42;10.05;;;6.38;;
37647;SDS011;23490;53.656;10.076;2023-05-07T04:04:08;10.90;;;6.28;;
37647;SDS011;23490;53.656;10.076;2023-05-07T04:06:33;11.10;;;6.43;;
37647;SDS011;23490;53.656;10.076;2023-05-07T04:08:58;9.60;;;5.93;;
37647;SDS011;23490;53.656;10.076;2023-05-07T04:11:24;10.75;;;5.85;;
37647;SDS011;23490;53.656;10.076;2023-05-07T04:13:50;8.15;;;4.88;;
37647;SDS011;23490;53.656;10.076;2023-05-07T04:16:15;11.30;;;5.90;;
37647;SDS011;23490;53.656;10.076;2023-05-07T04:18:41;10.35;;;5.75;;
37647;SDS011;23490;53.656;10.076;2023-05-07T04:21:13;8.63;;;6.00;;
37647;SDS011;23490;53.656;10.076;2023-05-07T04:23:42;11.70;;;5.90;;
37647;SDS011;23490;53.656;10.076;2023-05-07T04:26:07;9.55;;;5.90;;
37647;SDS011;23490;53.656;10.076;2023-05-07T04:28:32;10.32;;;6.10;;
37647;SDS011;23490;53.656;10.076;2023-05-07T04:30:58;10.77;;;5.95;;
37647;SDS011;23490;53.656;10.076;2023-05-07T04:33:23;10.63;;;6.18;;
37647;SDS011;23490;53.656;10.076;2023-05-07T04:35:49;8.88;;;5.90;;
37647;SDS011;23490;53.656;10.076;2023-05-07T04:38:14;11.00;;;6.32;;
37647;SDS011;23490;53.656;10.076;2023-05-07T04:40:39;7.82;;;5.28;;
37647;SDS011;23490;53.656;10.076;2023-05-07T04:43:06;9.25;;;5.90;;
37647;SDS011;23490;53.656;10.076;2023-05-07T04:45:32;10.45;;;5.90;;
37647;SDS011;23490;53.656;10.076;2023-05-07T04:47:57;9.60;;;5.72;;
37647;SDS011;23490;53.656;10.076;2023-05-07T04:50:23;9.18;;;5.82;;
37647;SDS011;23490;53.656;10.076;2023-05-07T04:52:49;10.65;;;6.18;;
37647;SDS011;23490;53.656;10.076;2023-05-07T04:55:16;8.60;;;5.22;;
37647;SDS011;23490;53.656;10.076;2023-05-07T04:57:41;9.43;;;4.97;;
37647;SDS011;23490;53.656;10.076;2023-05-07T05:00:08;8.75;;;5.18;;
37647;SDS011;23490;53.656;10.076;2023-05-07T05:02:34;11.52;;;6.18;;
37647;SDS011;23490;53.656;10.076;2023-05-07T05:05:00;9.50;;;5.53;;
37647;SDS011;23490;53.656;10.076;2023-05-07T05:07:27;9.32;;;5.90;;
37647;SDS011;23490;53.656;10.076;2023-05-07T05:09:53;9.90;;;5.97;;
37647;SDS011;23490;53.656;10.076;2023-05-07T05:12:19;10.02;;;5.10;;
37647;SDS011;23490;53.656;10.076;2023-05-07T05:14:44;10.73;;;5.57;;
37647;SDS011;23490;53.656;10.076;2023-05-07T05:17:12;8.55;;;5.32;;
37647;SDS011;23490;53.656;10.076;2023-05-07T05:19:37;10.77;;;5.30;;
37647;SDS011;23490;53.656;10.076;2023-05-07T05:22:02;9.35;;;4.90;;
37647;SDS011;23490;53.656;10.076;2023-05-07T05:24:28;8.77;;;4.95;;
37647;SDS011;23490;53.656;10.076;2023-05-07T05:26:55;7.75;;;5.00;;
37647;SDS011;23490;53.656;10.076;2023-05-07T05:29:20;9.63;;;4.97;;
37647;SDS011;23490;53.656;10.076;2023-05-07T05:31:47;8.88;;;5.45;;
37647;SDS011;23490;53.656;10.076;2023-05-07T05:34:12;11.10;;;4.95;;
37647;SDS011;23490;53.656;10.076;2023-05-07T05:36:38;7.22;;;4.13;;
37647;SDS011;23490;53.656;10.076;2023-05-07T05:39:03;7.95;;;4.78;;
37647;SDS011;23490;53.656;10.076;2023-05-07T05:41:29;7.32;;;4.70;;
37647;SDS011;23490;53.656;10.076;2023-05-07T05:43:55;8.98;;;5.25;;
37647;SDS011;23490;53.656;10.076;2023-05-07T05:46:21;8.23;;;4.60;;
37647;SDS011;23490;53.656;10.076;2023-05-07T05:48:47;8.43;;;5.10;;
37647;SDS011;23490;53.656;10.076;2023-05-07T05:51:12;8.05;;;4.82;;
37647;SDS011;23490;53.656;10.076;2023-05-07T05:53:37;8.48;;;4.97;;
37647;SDS011;23490;53.656;10.076;2023-05-07T05:56:03;9.55;;;5.13;;
37647;SDS011;23490;53.656;10.076;2023-05-07T05:58:29;9.65;;;5.68;;
37647;SDS011;23490;53.656;10.076;2023-05-07T06:00:54;8.60;;;5.22;;
37647;SDS011;23490;53.656;10.076;2023-05-07T06:03:20;9.77;;;4.80;;
37647;SDS011;23490;53.656;10.076;2023-05-07T06:05:45;7.15;;;4.03;;
37647;SDS011;23490;53.656;10.076;2023-05-07T06:08:11;8.10;;;5.28;;
37647;SDS011;23490;53.656;10.076;2023-05-07T06:10:39;7.25;;;4.88;;
37647;SDS011;23490;53.656;10.076;2023-05-07T06:13:06;7.25;;;4.72;;
37647;SDS011;23490;53.656;10.076;2023-05-07T06:15:32;8.75;;;5.13;;
37647;SDS011;23490;53.656;10.076;2023-05-07T06:17:57;6.45;;;4.03;;
37647;SDS011;23490;53.656;10.076;2023-05-07T06:20:23;6.97;;;4.35;;
37647;SDS011;23490;53.656;10.076;2023-05-07T06:22:49;7.63;;;4.97;;
37647;SDS011;23490;53.656;10.076;2023-05-07T06:25:14;8.55;;;4.70;;
37647;SDS011;23490;53.656;10.076;2023-05-07T06:27:41;8.40;;;4.85;;
37647;SDS011;23490;53.656;10.076;2023-05-07T06:30:07;7.18;;;4.60;;
37647;SDS011;23490;53.656;10.076;2023-05-07T06:32:33;8.25;;;4.78;;
37647;SDS011;23490;53.656;10.076;2023-05-07T06:34:58;6.75;;;4.65;;
37647;SDS011;23490;53.656;10.076;2023-05-07T06:37:24;7.72;;;4.30;;
37647;SDS011;23490;53.656;10.076;2023-05-07T06:39:50;7.95;;;4.43;;
37647;SDS011;23490;53.656;10.076;2023-05-07T06:42:16;6.80;;;4.35;;
37647;SDS011;23490;53.656;10.076;2023-05-07T06:44:42;7.72;;;4.40;;
37647;SDS011;23490;53.656;10.076;2023-05-07T06:47:07;8.13;;;4.28;;
37647;SDS011;23490;53.656;10.076;2023-05-07T06:49:33;6.65;;;4.32;;
37647;SDS011;23490;53.656;10.076;2023-05-07T06:51:59;6.97;;;4.53;;
37647;SDS011;23490;53.656;10.076;2023-05-07T06:54:25;7.53;;;4.85;;
37647;SDS011;23490;53.656;10.076;2023-05-07T06:56:52;7.18;;;4.35;;
37647;SDS011;23490;53.656;10.076;2023-05-07T06:59:17;7.18;;;4.40;;
37647;SDS011;23490;53.656;10.076;2023-05-07T07:01:42;6.57;;;3.63;;
37647;SDS011;23490;53.656;10.076;2023-05-07T07:04:09;7.50;;;3.78;;
37647;SDS011;23490;53.656;10.076;2023-05-07T07:06:34;6.85;;;3.85;;
37647;SDS011;23490;53.656;10.076;2023-05-07T07:08:59;8.05;;;4.38;;
37647;SDS011;23490;53.656;10.076;2023-05-07T07:11:25;6.65;;;4.20;;
37647;SDS011;23490;53.656;10.076;2023-05-07T07:13:50;6.13;;;3.70;;
37647;SDS011;23490;53.656;10.076;2023-05-07T07:16:20;6.72;;;4.07;;
37647;SDS011;23490;53.656;10.076;2023-05-07T07:18:47;5.97;;;3.53;;
37647;SDS011;23490;53.656;10.076;2023-05-07T07:21:12;6.95;;;3.70;;
37647;SDS011;23490;53.656;10.076;2023-05-07T07:23:37;6.50;;;3.75;;
37647;SDS011;23490;53.656;10.076;2023-05-07T07:26:04;7.78;;;4.55;;
37647;SDS011;23490;53.656;10.076;2023-05-07T07:28:31;5.32;;;3.10;;
37647;SDS011;23490;53.656;10.076;2023-05-07T07:30:57;6.97;;;3.78;;
37647;SDS011;23490;53.656;10.076;2023-05-07T07:33:22;8.38;;;4.55;;
37647;SDS011;23490;53.656;10.076;2023-05-07T07:35:48;5.47;;;3.72;;
37647;SDS011;23490;53.656;10.076;2023-05-07T07:38:13;6.57;;;3.72;;
37647;SDS011;23490;53.656;10.076;2023-05-07T07:40:39;7.18;;;4.05;;
37647;SDS011;23490;53.656;10.076;2023-05-07T07:43:04;5.97;;;3.72;;
37647;SDS011;23490;53.656;10.076;2023-05-07T07:45:31;5.45;;;3.33;;
37647;SDS011;23490;53.656;10.076;2023-05-07T07:47:56;7.78;;;3.92;;
37647;SDS011;23490;53.656;10.076;2023-05-07T07:50:21;7.15;;;3.97;;
37647;SDS011;23490;53.656;10.076;2023-05-07T07:52:47;6.30;;;3.80;;
37647;SDS011;23490;53.656;10.076;2023-05-07T07:55:13;7.47;;;4.10;;
37647;SDS011;23490;53.656;10.076;2023-05-07T07:57:38;7.47;;;4.35;;
37647;SDS011;23490;53.656;10.076;2023-05-07T08:00:05;5.75;;;3.60;;
37647;SDS011;23490;53.656;10.076;2023-05-07T08:02:32;5.93;;;3.35;;
37647;SDS011;23490;53.656;10.076;2023-05-07T08:04:59;6.07;;;3.80;;
37647;SDS011;23490;53.656;10.076;2023-05-07T08:07:24;6.43;;;3.95;;
37647;SDS011;23490;53.656;10.076;2023-05-07T08:09:49;6.70;;;4.05;;
37647;SDS011;23490;53.656;10.076;2023-05-07T08:12:15;6.78;;;3.75;;
37647;SDS011;23490;53.656;10.076;2023-05-07T08:14:40;7.60;;;3.80;;
37647;SDS011;23490;53.656;10.076;2023-05-07T08:17:06;6.28;;;3.65;;
37647;SDS011;23490;53.656;10.076;2023-05-07T08:19:31;6.63;;;3.78;;
37647;SDS011;23490;53.656;10.076;2023-05-07T08:21:57;6.45;;;3.63;;
37647;SDS011;23490;53.656;10.076;2023-05-07T08:24:23;7.05;;;3.90;;
37647;SDS011;23490;53.656;10.076;2023-05-07T08:26:50;7.25;;;3.58;;
37647;SDS011;23490;53.656;10.076;2023-05-07T08:29:17;5.43;;;3.42;;
37647;SDS011;23490;53.656;10.076;2023-05-07T08:31:42;6.55;;;3.88;;
37647;SDS011;23490;53.656;10.076;2023-05-07T08:34:08;6.15;;;3.72;;
37647;SDS011;23490;53.656;10.076;2023-05-07T08:36:34;6.75;;;3.63;;
37647;SDS011;23490;53.656;10.076;2023-05-07T08:39:00;6.18;;;3.30;;
37647;SDS011;23490;53.656;10.076;2023-05-07T08:41:27;5.93;;;3.67;;
37647;SDS011;23490;53.656;10.076;2023-05-07T08:43:53;6.22;;;3.20;;
37647;SDS011;23490;53.656;10.076;2023-05-07T08:46:24;6.65;;;3.15;;
37647;SDS011;23490;53.656;10.076;2023-05-07T08:48:51;6.47;;;3.70;;
37647;SDS011;23490;53.656;10.076;2023-05-07T08:51:18;6.57;;;3.60;;
37647;SDS011;23490;53.656;10.076;2023-05-07T08:53:45;5.85;;;2.90;;
37647;SDS011;23490;53.656;10.076;2023-05-07T08:56:13;4.88;;;3.03;;
37647;SDS011;23490;53.656;10.076;2023-05-07T08:58:43;5.85;;;3.30;;
37647;SDS011;23490;53.656;10.076;2023-05-07T09:01:10;6.18;;;3.28;;
37647;SDS011;23490;53.656;10.076;2023-05-07T09:03:39;5.70;;;3.42;;
37647;SDS011;23490;53.656;10.076;2023-05-07T09:06:05;6.03;;;3.20;;
37647;SDS011;23490;53.656;10.076;2023-05-07T09:08:32;6.65;;;3.50;;
37647;SDS011;23490;53.656;10.076;2023-05-07T09:10:58;4.60;;;3.05;;
37647;SDS011;23490;53.656;10.076;2023-05-07T09:13:25;5.60;;;3.13;;
37647;SDS011;23490;53.656;10.076;2023-05-07T09:15:52;5.45;;;3.30;;
37647;SDS011;23490;53.656;10.076;2023-05-07T09:18:18;5.82;;;3.47;;
37647;SDS011;23490;53.656;10.076;2023-05-07T09:20:43;6.78;;;3.38;;
37647;SDS011;23490;53.656;10.076;2023-05-07T09:23:08;6.70;;;3.40;;
37647;SDS011;23490;53.656;10.076;2023-05-07T09:25:35;6.35;;;3.40;;
37647;SDS011;23490;53.656;10.076;2023-05-07T09:28:01;5.60;;;2.97;;
37647;SDS011;23490;53.656;10.076;2023-05-07T09:30:28;5.10;;;3.10;;
37647;SDS011;23490;53.656;10.076;2023-05-07T09:32:55;5.00;;;3.10;;
37647;SDS011;23490;53.656;10.076;2023-05-07T09:35:21;5.10;;;3.00;;
37647;SDS011;23490;53.656;10.076;2023-05-07T09:37:58;3.72;;;2.55;;
37647;SDS011;23490;53.656;10.076;2023-05-07T09:40:26;6.57;;;3.30;;
37647;SDS011;23490;53.656;10.076;2023-05-07T09:42:53;5.00;;;3.20;;
37647;SDS011;23490;53.656;10.076;2023-05-07T09:45:24;6.07;;;3.08;;
37647;SDS011;23490;53.656;10.076;2023-05-07T09:47:53;5.90;;;3.25;;
37647;SDS011;23490;53.656;10.076;2023-05-07T09:50:22;9.60;;;2.75;;
37647;SDS011;23490;53.656;10.076;2023-05-07T09:52:53;4.78;;;2.88;;
37647;SDS011;23490;53.656;10.076;2023-05-07T09:55:21;6.38;;;3.20;;
37647;SDS011;23490;53.656;10.076;2023-05-07T09:57:48;5.88;;;3.30;;
37647;SDS011;23490;53.656;10.076;2023-05-07T10:00:15;6.97;;;3.30;;
37647;SDS011;23490;53.656;10.076;2023-05-07T10:02:50;4.90;;;3.30;;
37647;SDS011;23490;53.656;10.076;2023-05-07T10:05:20;5.55;;;2.80;;
37647;SDS011;23490;53.656;10.076;2023-05-07T10:10:13;7.50;;;3.20;;
37647;SDS011;23490;53.656;10.076;2023-05-07T10:12:42;6.63;;;3.30;;
37647;SDS011;23490;53.656;10.076;2023-05-07T10:15:12;4.45;;;2.95;;
37647;SDS011;23490;53.656;10.076;2023-05-07T10:17:38;5.53;;;3.22;;
37647;SDS011;23490;53.656;10.076;2023-05-07T10:20:05;5.20;;;3.25;;
37647;SDS011;23490;53.656;10.076;2023-05-07T10:22:33;5.60;;;3.15;;
37647;SDS011;23490;53.656;10.076;2023-05-07T10:25:21;5.40;;;2.63;;
37647;SDS011;23490;53.656;10.076;2023-05-07T10:27:50;5.70;;;3.17;;
37647;SDS011;23490;53.656;10.076;2023-05-07T10:30:26;7.25;;;3.17;;
37647;SDS011;23490;53.656;10.076;2023-05-07T10:32:55;5.10;;;2.88;;
37647;SDS011;23490;53.656;10.076;2023-05-07T10:35:30;5.03;;;3.28;;
37647;SDS011;23490;53.656;10.076;2023-05-07T10:38:03;6.88;;;3.22;;
37647;SDS011;23490;53.656;10.076;2023-05-07T10:40:30;5.28;;;2.63;;
37647;SDS011;23490;53.656;10.076;2023-05-07T10:42:56;5.15;;;2.95;;
37647;SDS011;23490;53.656;10.076;2023-05-07T10:45:24;4.25;;;2.72;;
37647;SDS011;23490;53.656;10.076;2023-05-07T10:48:10;4.35;;;2.63;;
37647;SDS011;23490;53.656;10.076;2023-05-07T10:50:37;3.85;;;2.50;;
37647;SDS011;23490;53.656;10.076;2023-05-07T10:55:50;5.30;;;2.45;;
37647;SDS011;23490;53.656;10.076;2023-05-07T10:58:36;3.85;;;2.45;;
37647;SDS011;23490;53.656;10.076;2023-05-07T11:01:02;4.30;;;2.30;;
37647;SDS011;23490;53.656;10.076;2023-05-07T11:03:28;4.93;;;2.47;;
37647;SDS011;23490;53.656;10.076;2023-05-07T11:06:10;4.90;;;2.40;;
37647;SDS011;23490;53.656;10.076;2023-05-07T11:11:16;5.90;;;2.30;;
37647;SDS011;23490;53.656;10.076;2023-05-07T11:13:42;3.55;;;2.47;;
37647;SDS011;23490;53.656;10.076;2023-05-07T11:16:18;4.00;;;2.60;;
37647;SDS011;23490;53.656;10.076;2023-05-07T11:18:49;4.30;;;2.65;;
37647;SDS011;23490;53.656;10.076;2023-05-07T11:21:31;3.45;;;2.20;;
37647;SDS011;23490;53.656;10.076;2023-05-07T11:24:01;4.63;;;2.67;;
37647;SDS011;23490;53.656;10.076;2023-05-07T11:26:28;3.83;;;2.47;;
37647;SDS011;23490;53.656;10.076;2023-05-07T11:28:56;4.13;;;2.20;;
37647;SDS011;23490;53.656;10.076;2023-05-07T11:31:25;4.30;;;2.55;;
37647;SDS011;23490;53.656;10.076;2023-05-07T11:33:56;3.08;;;2.15;;
37647;SDS011;23490;53.656;10.076;2023-05-07T11:36:22;5.55;;;2.60;;
37647;SDS011;23490;53.656;10.076;2023-05-07T11:38:48;3.78;;;2.20;;
37647;SDS011;23490;53.656;10.076;2023-05-07T11:41:15;2.88;;;1.85;;
37647;SDS011;23490;53.656;10.076;2023-05-07T11:43:54;2.85;;;1.83;;
37647;SDS011;23490;53.656;10.076;2023-05-07T11:46:23;4.85;;;2.38;;
37647;SDS011;23490;53.656;10.076;2023-05-07T11:48:49;2.95;;;1.85;;
37647;SDS011;23490;53.656;10.076;2023-05-07T11:51:18;2.65;;;1.92;;
37647;SDS011;23490;53.656;10.076;2023-05-07T11:53:44;2.80;;;1.70;;
37647;SDS011;23490;53.656;10.076;2023-05-07T11:56:10;3.42;;;1.90;;
37647;SDS011;23490;53.656;10.076;2023-05-07T11:58:36;3.08;;;1.98;;
37647;SDS011;23490;53.656;10.076;2023-05-07T12:01:04;2.80;;;1.73;;
37647;SDS011;23490;53.656;10.076;2023-05-07T12:03:35;3.00;;;1.90;;
37647;SDS011;23490;53.656;10.076;2023-05-07T12:06:02;2.65;;;1.60;;
37647;SDS011;23490;53.656;10.076;2023-05-07T12:08:30;3.60;;;1.90;;
37647;SDS011;23490;53.656;10.076;2023-05-07T12:10:55;2.42;;;1.70;;
37647;SDS011;23490;53.656;10.076;2023-05-07T12:13:23;2.92;;;1.52;;
37647;SDS011;23490;53.656;10.076;2023-05-07T12:15:51;4.32;;;1.75;;
37647;SDS011;23490;53.656;10.076;2023-05-07T12:18:20;4.82;;;1.80;;
37647;SDS011;23490;53.656;10.076;2023-05-07T12:20:46;3.35;;;1.80;;
37647;SDS011;23490;53.656;10.076;2023-05-07T12:23:12;2.80;;;1.88;;
37647;SDS011;23490;53.656;10.076;2023-05-07T12:25:38;2.85;;;1.50;;
37647;SDS011;23490;53.656;10.076;2023-05-07T12:28:05;4.20;;;1.75;;
37647;SDS011;23490;53.656;10.076;2023-05-07T12:30:37;2.67;;;1.45;;
37647;SDS011;23490;53.656;10.076;2023-05-07T12:33:03;3.85;;;1.70;;
37647;SDS011;23490;53.656;10.076;2023-05-07T12:35:36;3.40;;;1.65;;
37647;SDS011;23490;53.656;10.076;2023-05-07T12:38:07;2.83;;;1.52;;
37647;SDS011;23490;53.656;10.076;2023-05-07T12:40:57;3.45;;;1.40;;
37647;SDS011;23490;53.656;10.076;2023-05-07T12:43:24;2.75;;;1.70;;
37647;SDS011;23490;53.656;10.076;2023-05-07T12:45:51;2.15;;;1.48;;
37647;SDS011;23490;53.656;10.076;2023-05-07T12:48:19;1.67;;;1.20;;
37647;SDS011;23490;53.656;10.076;2023-05-07T12:50:44;2.83;;;1.40;;
37647;SDS011;23490;53.656;10.076;2023-05-07T12:53:11;4.32;;;1.27;;
37647;SDS011;23490;53.656;10.076;2023-05-07T12:55:41;2.80;;;1.48;;
37647;SDS011;23490;53.656;10.076;2023-05-07T12:58:14;2.63;;;1.60;;
37647;SDS011;23490;53.656;10.076;2023-05-07T13:00:40;1.60;;;1.40;;
37647;SDS011;23490;53.656;10.076;2023-05-07T13:03:08;2.42;;;1.35;;
37647;SDS011;23490;53.656;10.076;2023-05-07T13:05:33;2.15;;;1.45;;
37647;SDS011;23490;53.656;10.076;2023-05-07T13:08:00;2.90;;;1.38;;
37647;SDS011;23490;53.656;10.076;2023-05-07T13:10:26;1.67;;;1.13;;
37647;SDS011;23490;53.656;10.076;2023-05-07T13:12:52;3.00;;;1.50;;
37647;SDS011;23490;53.656;10.076;2023-05-07T13:15:20;2.05;;;1.40;;
37647;SDS011;23490;53.656;10.076;2023-05-07T13:17:45;2.53;;;1.40;;
37647;SDS011;23490;53.656;10.076;2023-05-07T13:20:11;1.90;;;1.10;;
37647;SDS011;23490;53.656;10.076;2023-05-07T13:22:40;2.08;;;1.20;;
37647;SDS011;23490;53.656;10.076;2023-05-07T13:25:07;2.33;;;1.45;;
37647;SDS011;23490;53.656;10.076;2023-05-07T13:27:33;3.42;;;1.50;;
37647;SDS011;23490;53.656;10.076;2023-05-07T13:30:01;1.98;;;1.30;;
37647;SDS011;23490;53.656;10.076;2023-05-07T13:32:28;2.65;;;1.35;;
37647;SDS011;23490;53.656;10.076;2023-05-07T13:34:53;1.60;;;1.17;;
37647;SDS011;23490;53.656;10.076;2023-05-07T13:37:18;2.00;;;1.30;;
37647;SDS011;23490;53.656;10.076;2023-05-07T13:39:44;1.45;;;1.08;;
37647;SDS011;23490;53.656;10.076;2023-05-07T13:42:10;2.53;;;1.67;;
37647;SDS011;23490;53.656;10.076;2023-05-07T13:44:35;3.03;;;1.23;;
37647;SDS011;23490;53.656;10.076;2023-05-07T13:47:01;2.95;;;1.20;;
37647;SDS011;23490;53.656;10.076;2023-05-07T13:49:26;1.20;;;1.00;;
37647;SDS011;23490;53.656;10.076;2023-05-07T13:51:52;1.92;;;1.05;;
37647;SDS011;23490;53.656;10.076;2023-05-07T13:54:18;1.63;;;1.00;;
37647;SDS011;23490;53.656;10.076;2023-05-07T13:56:44;1.85;;;1.10;;
37647;SDS011;23490;53.656;10.076;2023-05-07T13:59:09;1.70;;;1.00;;
37647;SDS011;23490;53.656;10.076;2023-05-07T14:01:34;1.65;;;1.20;;
37647;SDS011;23490;53.656;10.076;2023-05-07T14:04:00;1.60;;;1.20;;
37647;SDS011;23490;53.656;10.076;2023-05-07T14:06:26;2.45;;;1.35;;
37647;SDS011;23490;53.656;10.076;2023-05-07T14:08:52;1.77;;;1.08;;
37647;SDS011;23490;53.656;10.076;2023-05-07T14:11:17;2.25;;;1.50;;
37647;SDS011;23490;53.656;10.076;2023-05-07T14:13:42;2.88;;;1.75;;
37647;SDS011;23490;53.656;10.076;2023-05-07T14:16:08;2.05;;;1.30;;
37647;SDS011;23490;53.656;10.076;2023-05-07T14:18:33;2.67;;;1.42;;
37647;SDS011;23490;53.656;10.076;2023-05-07T14:21:02;2.67;;;1.20;;
37647;SDS011;23490;53.656;10.076;2023-05-07T14:23:27;3.22;;;1.48;;
37647;SDS011;23490;53.656;10.076;2023-05-07T14:25:53;3.72;;;1.17;;
37647;SDS011;23490;53.656;10.076;2023-05-07T14:28:19;1.83;;;1.23;;
37647;SDS011;23490;53.656;10.076;2023-05-07T14:30:44;2.65;;;1.50;;
37647;SDS011;23490;53.656;10.076;2023-05-07T14:33:10;2.00;;;1.17;;
37647;SDS011;23490;53.656;10.076;2023-05-07T14:35:37;3.42;;;1.80;;